Time;durP1;ratioP1;P1;durP2;ratioP2;P2;SDS_P1;SDS_P2;PMS_P1;PMS_P2;Temp;Humidity;BMP_temperature;BMP_pressure;BME280_temperature;BME280_humidity;BME280_pressure;Samples;Min_cycle;Max_cycle;Signal;HPM_P1;HPM_P2
2023/01/13 00:01:00;;;;;;;1999.90;999.90;;;;;;;;;;5015957;28;20714;-72
2023/01/13 00:03:28;;;;;;;1999.90;999.90;;;;;;;;;;5011722;28;20233;-72
2023/01/13 00:05:58;;;;;;;1999.90;999.90;;;;;;;;;;5016311;28;20233;-72
2023/01/13 00:08:26;;;;;;;1999.90;999.90;;;;;;;;;;5006357;28;20245;-73
2023/01/13 00:10:55;;;;;;;1999.90;999.90;;;;;;;;;;5011168;28;20714;-72
2023/01/13 00:13:26;;;;;;;1999.90;999.90;;;;;;;;;;5001332;28;20232;-72
2023/01/13 00:15:57;;;;;;;1999.90;999.90;;;;;;;;;;5009723;28;20229;-72
2023/01/13 00:18:25;;;;;;;1999.90;999.90;;;;;;;;;;5007522;28;20241;-72
2023/01/13 00:21:00;;;;;;;1999.90;999.90;;;;;;;;;;4994963;28;20280;-71
2023/01/13 00:23:29;;;;;;;1999.90;999.90;;;;;;;;;;5013776;28;20652;-72
2023/01/13 00:25:59;;;;;;;1999.90;999.90;;;;;;;;;;5015860;28;20237;-72
2023/01/13 00:28:28;;;;;;;1999.90;999.90;;;;;;;;;;5021799;28;20260;-73
2023/01/13 00:30:57;;;;;;;1999.90;999.90;;;;;;;;;;5010004;28;20257;-73
2023/01/13 00:33:25;;;;;;;1999.90;999.90;;;;;;;;;;4991105;28;20230;-73
2023/01/13 00:35:56;;;;;;;1999.90;999.90;;;;;;;;;;5011331;28;20312;-74
2023/01/13 00:38:24;;;;;;;1999.90;999.90;;;;;;;;;;5009156;28;20239;-73
2023/01/13 00:40:56;;;;;;;1999.90;999.90;;;;;;;;;;5008242;28;20288;-73
2023/01/13 00:43:24;;;;;;;1999.90;999.90;;;;;;;;;;4990477;28;20230;-73
2023/01/13 00:45:52;;;;;;;1999.90;999.90;;;;;;;;;;5013545;28;20285;-73
2023/01/13 00:48:21;;;;;;;1999.90;999.90;;;;;;;;;;5013959;28;20237;-73
2023/01/13 00:50:54;;;;;;;1999.90;999.90;;;;;;;;;;5004848;28;20237;-73
2023/01/13 00:53:22;;;;;;;1999.90;999.90;;;;;;;;;;5007465;28;20237;-73
2023/01/13 00:55:58;;;;;;;1999.90;999.90;;;;;;;;;;5010686;28;20631;-73
2023/01/13 00:58:27;;;;;;;1999.90;999.90;;;;;;;;;;5029933;28;20243;-73
2023/01/13 01:00:59;;;;;;;1999.90;999.90;;;;;;;;;;5004119;28;20702;-70
2023/01/13 01:03:28;;;;;;;1999.90;999.90;;;;;;;;;;5012944;28;20315;-74
2023/01/13 01:05:56;;;;;;;1999.90;999.90;;;;;;;;;;5010992;28;20225;-74
2023/01/13 01:08:24;;;;;;;1999.90;999.90;;;;;;;;;;5006102;28;20226;-74
2023/01/13 01:11:00;;;;;;;1999.90;999.90;;;;;;;;;;5016119;28;20237;-71
2023/01/13 01:13:29;;;;;;;1999.90;999.90;;;;;;;;;;5022305;28;20249;-71
2023/01/13 01:15:57;;;;;;;1999.90;999.90;;;;;;;;;;5010740;28;21089;-71
2023/01/13 01:18:25;;;;;;;1999.90;999.90;;;;;;;;;;5010646;28;20234;-70
2023/01/13 01:20:53;;;;;;;1999.90;999.90;;;;;;;;;;5006139;28;20288;-71
2023/01/13 01:23:21;;;;;;;1999.90;999.90;;;;;;;;;;5011044;28;20225;-71
2023/01/13 01:25:49;;;;;;;1999.90;999.90;;;;;;;;;;5010779;28;20906;-71
2023/01/13 01:28:19;;;;;;;1999.90;999.90;;;;;;;;;;5005840;28;20317;-71
2023/01/13 01:30:50;;;;;;;1999.90;999.90;;;;;;;;;;5016090;28;20229;-71
2023/01/13 01:33:18;;;;;;;1999.90;999.90;;;;;;;;;;4991209;28;20241;-72
2023/01/13 01:35:45;;;;;;;1999.90;999.90;;;;;;;;;;5011631;28;20234;-72
2023/01/13 01:38:13;;;;;;;1999.90;999.90;;;;;;;;;;5029465;28;20237;-72
2023/01/13 01:40:41;;;;;;;1999.90;999.90;;;;;;;;;;5017882;28;20595;-71
2023/01/13 01:46:05;;;;;;;1999.90;999.90;;;;;;;;;;4989190;28;20312;-71
2023/01/13 01:48:34;;;;;;;1999.90;999.90;;;;;;;;;;5011932;28;20273;-72
2023/01/13 01:51:02;;;;;;;1999.90;999.90;;;;;;;;;;5009430;28;20238;-72
2023/01/13 01:53:32;;;;;;;1999.90;999.90;;;;;;;;;;5006263;28;20234;-72
2023/01/13 01:56:00;;;;;;;1999.90;999.90;;;;;;;;;;5023749;28;20230;-72
2023/01/13 01:58:30;;;;;;;1999.90;999.90;;;;;;;;;;5007659;28;20233;-72
2023/01/13 02:00:59;;;;;;;1999.90;999.90;;;;;;;;;;5009925;28;20331;-72
2023/01/13 02:03:29;;;;;;;1999.90;999.90;;;;;;;;;;5004396;28;20232;-72
2023/01/13 02:05:57;;;;;;;1999.90;999.90;;;;;;;;;;5009188;28;20360;-72
2023/01/13 02:08:25;;;;;;;1999.90;999.90;;;;;;;;;;5011696;28;20249;-72
2023/01/13 02:10:53;;;;;;;1999.90;999.90;;;;;;;;;;5019067;28;20268;-71
2023/01/13 02:13:22;;;;;;;1999.90;999.90;;;;;;;;;;5009405;28;20238;-71
2023/01/13 02:15:54;;;;;;;1999.90;999.90;;;;;;;;;;5012329;28;20687;-71
2023/01/13 02:18:31;;;;;;;1999.90;999.90;;;;;;;;;;5000611;28;20695;-71
2023/01/13 02:21:08;;;;;;;1999.90;999.90;;;;;;;;;;5012224;28;20273;-71
2023/01/13 02:27:10;;;;;;;1999.90;999.90;;;;;;;;;;5010338;28;20714;-71
2023/01/13 02:32:36;;;;;;;1999.90;999.90;;;;;;;;;;5010758;28;20569;-71
2023/01/13 02:35:06;;;;;;;1999.90;999.90;;;;;;;;;;5009129;28;20313;-71
2023/01/13 02:37:37;;;;;;;1999.90;999.90;;;;;;;;;;5008133;28;20269;-72
2023/01/13 02:40:08;;;;;;;1999.90;999.90;;;;;;;;;;5021293;28;20324;-71
2023/01/13 02:45:26;;;;;;;1999.90;999.90;;;;;;;;;;5009181;28;20738;-72
2023/01/13 02:47:55;;;;;;;1999.90;999.90;;;;;;;;;;5011332;28;20234;-71
2023/01/13 02:50:27;;;;;;;1999.90;999.90;;;;;;;;;;5011359;28;20696;-71
2023/01/13 02:52:56;;;;;;;1999.90;999.90;;;;;;;;;;5011815;28;20241;-70
2023/01/13 02:55:27;;;;;;;1999.90;999.90;;;;;;;;;;5010617;28;20254;-72
2023/01/13 02:57:58;;;;;;;1999.90;999.90;;;;;;;;;;5010898;28;20438;-71
2023/01/13 03:00:28;;;;;;;1999.90;999.90;;;;;;;;;;5011914;28;20241;-71
2023/01/13 03:02:56;;;;;;;1999.90;999.90;;;;;;;;;;5005734;28;20238;-71
2023/01/13 03:05:25;;;;;;;1999.90;999.90;;;;;;;;;;5006778;28;20320;-71
2023/01/13 03:08:14;;;;;;;1999.90;999.90;;;;;;;;;;5007347;28;20261;-71
2023/01/13 03:11:00;;;;;;;1999.90;999.90;;;;;;;;;;5010190;28;20229;-71
2023/01/13 03:13:38;;;;;;;1999.90;999.90;;;;;;;;;;5004631;28;20226;-72
2023/01/13 03:16:15;;;;;;;1999.90;999.90;;;;;;;;;;5010719;28;20235;-73
2023/01/13 03:18:45;;;;;;;1999.90;999.90;;;;;;;;;;5013621;28;20253;-72
2023/01/13 03:21:18;;;;;;;1999.90;999.90;;;;;;;;;;5007985;28;20271;-72
2023/01/13 03:23:49;;;;;;;1999.90;999.90;;;;;;;;;;5008227;28;20313;-73
2023/01/13 03:26:18;;;;;;;1999.90;999.90;;;;;;;;;;5008832;28;20250;-73
2023/01/13 03:28:49;;;;;;;1999.90;999.90;;;;;;;;;;5004356;28;20269;-72
2023/01/13 03:31:21;;;;;;;1999.90;999.90;;;;;;;;;;5007496;28;20316;-71
2023/01/13 03:33:53;;;;;;;1999.90;999.90;;;;;;;;;;5011219;28;20265;-71
2023/01/13 03:36:24;;;;;;;1999.90;999.90;;;;;;;;;;5010679;28;20221;-72
2023/01/13 03:38:54;;;;;;;1999.90;999.90;;;;;;;;;;5014686;28;20233;-72
2023/01/13 03:41:23;;;;;;;1999.90;999.90;;;;;;;;;;5016019;28;20237;-72
2023/01/13 03:46:43;;;;;;;1999.90;999.90;;;;;;;;;;5005262;28;20233;-73
2023/01/13 03:49:13;;;;;;;1999.90;999.90;;;;;;;;;;4991257;28;20222;-70
2023/01/13 03:51:44;;;;;;;1999.90;999.90;;;;;;;;;;5003785;28;20252;-73
2023/01/13 03:54:14;;;;;;;1999.90;999.90;;;;;;;;;;5016654;28;20234;-73
2023/01/13 03:56:43;;;;;;;1999.90;999.90;;;;;;;;;;5010160;28;20348;-72
2023/01/13 03:59:13;;;;;;;1999.90;999.90;;;;;;;;;;5005560;28;20238;-70
2023/01/13 04:01:51;;;;;;;1999.90;999.90;;;;;;;;;;5006737;28;20288;-72
2023/01/13 04:04:21;;;;;;;1999.90;999.90;;;;;;;;;;5009742;28;20233;-72
2023/01/13 04:06:53;;;;;;;1999.90;999.90;;;;;;;;;;5010948;28;20237;-72
2023/01/13 04:09:26;;;;;;;1999.90;999.90;;;;;;;;;;5005749;28;21033;-71
2023/01/13 04:11:57;;;;;;;1999.90;999.90;;;;;;;;;;5008203;28;20252;-72
2023/01/13 04:14:26;;;;;;;1999.90;999.90;;;;;;;;;;4991337;28;20265;-72
2023/01/13 04:16:56;;;;;;;1999.90;999.90;;;;;;;;;;5009108;28;20531;-72
2023/01/13 04:19:24;;;;;;;1999.90;999.90;;;;;;;;;;5007431;28;20234;-72
2023/01/13 04:21:52;;;;;;;1999.90;999.90;;;;;;;;;;5011956;28;20788;-72
2023/01/13 04:24:20;;;;;;;1999.90;999.90;;;;;;;;;;5011255;28;20233;-72
2023/01/13 04:26:48;;;;;;;1999.90;999.90;;;;;;;;;;5025073;28;20264;-72
2023/01/13 04:29:16;;;;;;;1999.90;999.90;;;;;;;;;;5013729;28;20316;-73
2023/01/13 04:31:44;;;;;;;1999.90;999.90;;;;;;;;;;5007008;28;20734;-72
2023/01/13 04:34:13;;;;;;;1999.90;999.90;;;;;;;;;;5006568;28;20238;-73
2023/01/13 04:36:41;;;;;;;1999.90;999.90;;;;;;;;;;5003259;28;20225;-72
2023/01/13 04:39:09;;;;;;;1999.90;999.90;;;;;;;;;;5005871;28;20752;-72
2023/01/13 04:44:20;;;;;;;1999.90;999.90;;;;;;;;;;5007344;28;20291;-72
2023/01/13 04:46:48;;;;;;;1999.90;999.90;;;;;;;;;;5011832;28;20235;-72
2023/01/13 04:49:17;;;;;;;1999.90;999.90;;;;;;;;;;5015730;28;20316;-73
2023/01/13 04:51:45;;;;;;;1999.90;999.90;;;;;;;;;;5016764;28;20244;-72
2023/01/13 04:54:13;;;;;;;1999.90;999.90;;;;;;;;;;5051779;22;20241;-75
2023/01/13 04:56:41;;;;;;;1999.90;999.90;;;;;;;;;;5028481;28;20896;-74
2023/01/13 04:59:09;;;;;;;1999.90;999.90;;;;;;;;;;5010048;28;20236;-73
2023/01/13 05:01:37;;;;;;;1999.90;999.90;;;;;;;;;;5006500;28;20238;-77
2023/01/13 05:04:06;;;;;;;1999.90;999.90;;;;;;;;;;5007047;28;20321;-76
2023/01/13 05:06:35;;;;;;;1999.90;999.90;;;;;;;;;;5006567;28;20321;-76
2023/01/13 05:09:03;;;;;;;1999.90;999.90;;;;;;;;;;5015947;28;20744;-76
2023/01/13 05:17:02;;;;;;;1999.90;999.90;;;;;;;;;;5012736;28;20353;-75
2023/01/13 05:19:31;;;;;;;1999.90;999.90;;;;;;;;;;5011300;28;20233;-76
2023/01/13 05:27:32;;;;;;;1999.90;999.90;;;;;;;;;;5010693;28;20292;-74
2023/01/13 05:30:00;;;;;;;1999.90;999.90;;;;;;;;;;5028592;28;20703;-74
2023/01/13 05:32:28;;;;;;;1999.90;999.90;;;;;;;;;;5009901;28;20716;-76
2023/01/13 05:34:56;;;;;;;1999.90;999.90;;;;;;;;;;5005690;28;20245;-76
2023/01/13 05:37:26;;;;;;;1999.90;999.90;;;;;;;;;;4994409;28;20237;-76
2023/01/13 05:45:25;;;;;;;1999.90;999.90;;;;;;;;;;5011166;28;20339;-76
2023/01/13 05:47:53;;;;;;;1999.90;999.90;;;;;;;;;;5010109;28;20245;-75
2023/01/13 05:50:21;;;;;;;1999.90;999.90;;;;;;;;;;5009816;28;20229;-76
2023/01/13 05:52:50;;;;;;;1999.90;999.90;;;;;;;;;;5014077;28;20747;-78
2023/01/13 05:55:18;;;;;;;1999.90;999.90;;;;;;;;;;5006587;28;20287;-76
2023/01/13 05:57:46;;;;;;;1999.90;999.90;;;;;;;;;;5008268;28;20233;-76
2023/01/13 06:00:14;;;;;;;1999.90;999.90;;;;;;;;;;5010487;28;20234;-74
2023/01/13 06:02:42;;;;;;;1999.90;999.90;;;;;;;;;;5007902;28;20237;-75
2023/01/13 06:05:10;;;;;;;1999.90;999.90;;;;;;;;;;4997937;28;20269;-76
2023/01/13 06:07:38;;;;;;;1999.90;999.90;;;;;;;;;;5009008;28;20233;-74
2023/01/13 06:10:08;;;;;;;1999.90;999.90;;;;;;;;;;5010455;28;20254;-76
2023/01/13 06:12:37;;;;;;;1999.90;999.90;;;;;;;;;;5007478;28;20236;-74
2023/01/13 06:15:05;;;;;;;1999.90;999.90;;;;;;;;;;4989616;28;21605;-75
2023/01/13 06:17:33;;;;;;;1999.90;999.90;;;;;;;;;;5010219;28;20231;-76
2023/01/13 06:20:00;;;;;;;1999.90;999.90;;;;;;;;;;5015921;28;20225;-76
2023/01/13 06:22:31;;;;;;;1999.90;999.90;;;;;;;;;;5014743;28;20262;-75
2023/01/13 06:24:59;;;;;;;1999.90;999.90;;;;;;;;;;5041934;28;20241;-74
2023/01/13 06:27:29;;;;;;;1999.90;999.90;;;;;;;;;;5014107;28;20264;-74
2023/01/13 06:29:57;;;;;;;1999.90;999.90;;;;;;;;;;5010625;28;20225;-74
2023/01/13 06:32:26;;;;;;;1999.90;999.90;;;;;;;;;;5016310;28;20300;-73
2023/01/13 06:34:56;;;;;;;1999.90;999.90;;;;;;;;;;4987859;28;22528;-74
2023/01/13 06:37:25;;;;;;;1999.90;999.90;;;;;;;;;;5013098;28;21009;-75
2023/01/13 06:39:56;;;;;;;1999.90;999.90;;;;;;;;;;5018235;28;20626;-74
2023/01/13 06:45:12;;;;;;;1999.90;999.90;;;;;;;;;;5009738;28;20236;-74
2023/01/13 06:47:40;;;;;;;1999.90;999.90;;;;;;;;;;5008361;28;20245;-71
2023/01/13 06:50:08;;;;;;;1999.90;999.90;;;;;;;;;;5008158;28;20268;-73
2023/01/13 06:52:36;;;;;;;1999.90;999.90;;;;;;;;;;5008859;28;20238;-74
2023/01/13 06:55:04;;;;;;;1999.90;999.90;;;;;;;;;;4993154;28;21177;-73
2023/01/13 06:57:32;;;;;;;1999.90;999.90;;;;;;;;;;5010939;28;20453;-74
2023/01/13 07:00:00;;;;;;;1999.90;999.90;;;;;;;;;;5020224;28;20234;-73
2023/01/13 07:02:29;;;;;;;1999.90;999.90;;;;;;;;;;5018382;28;20261;-73
2023/01/13 07:04:57;;;;;;;1999.90;999.90;;;;;;;;;;5021410;28;20272;-74
2023/01/13 07:07:25;;;;;;;1999.90;999.90;;;;;;;;;;5028689;28;20254;-75
2023/01/13 07:09:53;;;;;;;1999.90;999.90;;;;;;;;;;5025249;28;20233;-73
2023/01/13 07:12:20;;;;;;;1999.90;999.90;;;;;;;;;;5007571;28;20813;-74
2023/01/13 07:17:35;;;;;;;1999.90;999.90;;;;;;;;;;4995142;28;20234;-73
2023/01/13 07:20:04;;;;;;;1999.90;999.90;;;;;;;;;;5012410;28;20305;-73
2023/01/13 07:22:32;;;;;;;1999.90;999.90;;;;;;;;;;5012040;28;20225;-73
2023/01/13 07:24:59;;;;;;;1999.90;999.90;;;;;;;;;;5011420;28;20245;-74
2023/01/13 07:27:27;;;;;;;1999.90;999.90;;;;;;;;;;5007926;28;20316;-75
2023/01/13 07:29:55;;;;;;;1999.90;999.90;;;;;;;;;;5007444;28;20230;-74
2023/01/13 07:32:23;;;;;;;1999.90;999.90;;;;;;;;;;5007412;28;20755;-73
2023/01/13 07:34:52;;;;;;;1999.90;999.90;;;;;;;;;;5005553;28;20320;-75
2023/01/13 07:37:20;;;;;;;1999.90;999.90;;;;;;;;;;5002920;28;20262;-73
2023/01/13 07:39:49;;;;;;;1999.90;999.90;;;;;;;;;;5006046;28;20778;-74
2023/01/13 07:45:02;;;;;;;1999.90;999.90;;;;;;;;;;4992431;28;20226;-74
2023/01/13 07:47:30;;;;;;;1999.90;999.90;;;;;;;;;;5006658;28;20256;-74
2023/01/13 07:49:59;;;;;;;1999.90;999.90;;;;;;;;;;5018178;28;20229;-74
2023/01/13 07:52:28;;;;;;;1999.90;999.90;;;;;;;;;;5006307;28;20226;-74
2023/01/13 07:54:55;;;;;;;1999.90;999.90;;;;;;;;;;5007347;28;20237;-74
2023/01/13 07:57:23;;;;;;;1999.90;999.90;;;;;;;;;;5006882;28;20668;-73
2023/01/13 07:59:51;;;;;;;1999.90;999.90;;;;;;;;;;5008520;28;20327;-75
2023/01/13 08:02:20;;;;;;;1999.90;999.90;;;;;;;;;;5007359;28;20236;-73
2023/01/13 08:04:48;;;;;;;1999.90;999.90;;;;;;;;;;5018025;28;20233;-73
2023/01/13 08:07:17;;;;;;;1999.90;999.90;;;;;;;;;;5005254;28;20240;-74
2023/01/13 08:09:45;;;;;;;1999.90;999.90;;;;;;;;;;5005272;28;20593;-74
2023/01/13 08:14:59;;;;;;;1999.90;999.90;;;;;;;;;;5040791;28;20246;-74
2023/01/13 08:17:27;;;;;;;1999.90;999.90;;;;;;;;;;5005828;28;20795;-73
2023/01/13 08:19:55;;;;;;;1999.90;999.90;;;;;;;;;;5013381;28;20234;-74
2023/01/13 08:22:24;;;;;;;1999.90;999.90;;;;;;;;;;5005864;28;20237;-75
2023/01/13 08:24:52;;;;;;;1999.90;999.90;;;;;;;;;;5004729;28;20225;-73
2023/01/13 08:27:20;;;;;;;1999.90;999.90;;;;;;;;;;5003999;28;20990;-73
2023/01/13 08:29:48;;;;;;;1999.90;999.90;;;;;;;;;;4994720;28;20230;-73
2023/01/13 08:32:15;;;;;;;1999.90;999.90;;;;;;;;;;5008961;28;20657;-74
2023/01/13 08:34:43;;;;;;;1999.90;999.90;;;;;;;;;;5013047;28;20337;-74
2023/01/13 08:37:11;;;;;;;1999.90;999.90;;;;;;;;;;5009041;28;20731;-73
2023/01/13 08:39:41;;;;;;;1999.90;999.90;;;;;;;;;;5005104;28;20229;-74
2023/01/13 08:42:09;;;;;;;1999.90;999.90;;;;;;;;;;5010609;28;20747;-74
2023/01/13 08:44:37;;;;;;;1999.90;999.90;;;;;;;;;;5006216;28;21528;-73
2023/01/13 08:47:05;;;;;;;1999.90;999.90;;;;;;;;;;5010024;28;20233;-73
2023/01/13 08:49:33;;;;;;;1999.90;999.90;;;;;;;;;;5002757;28;21224;-73
2023/01/13 08:52:01;;;;;;;1999.90;999.90;;;;;;;;;;5006046;28;20292;-73
2023/01/13 08:54:30;;;;;;;1999.90;999.90;;;;;;;;;;5003854;28;20237;-73
2023/01/13 08:57:02;;;;;;;1999.90;999.90;;;;;;;;;;5020792;28;20241;-73
2023/01/13 08:59:30;;;;;;;1999.90;999.90;;;;;;;;;;5008641;28;20246;-73
2023/01/13 09:01:58;;;;;;;1999.90;999.90;;;;;;;;;;5010240;28;20230;-73
2023/01/13 09:04:27;;;;;;;1999.90;999.90;;;;;;;;;;5007920;28;20230;-73
2023/01/13 09:06:55;;;;;;;1999.90;999.90;;;;;;;;;;4992859;28;20253;-73
2023/01/13 09:09:26;;;;;;;1999.90;999.90;;;;;;;;;;5011035;28;20232;-73
2023/01/13 09:14:41;;;;;;;1999.90;999.90;;;;;;;;;;5015699;28;20285;-74
2023/01/13 09:17:09;;;;;;;1999.90;999.90;;;;;;;;;;5016027;28;20356;-73
2023/01/13 09:19:36;;;;;;;1999.90;999.90;;;;;;;;;;5027583;28;20880;-74
2023/01/13 09:22:04;;;;;;;1999.90;999.90;;;;;;;;;;5010107;28;20257;-73
2023/01/13 09:24:32;;;;;;;1999.90;999.90;;;;;;;;;;5013093;28;20236;-73
2023/01/13 09:27:00;;;;;;;1999.90;999.90;;;;;;;;;;5008278;28;20226;-73
2023/01/13 09:29:30;;;;;;;1999.90;999.90;;;;;;;;;;5014743;28;20244;-73
2023/01/13 09:31:59;;;;;;;1999.90;999.90;;;;;;;;;;5010902;28;20924;-72
2023/01/13 09:37:12;;;;;;;1999.90;999.90;;;;;;;;;;5014975;28;20240;-73
2023/01/13 09:39:40;;;;;;;1999.90;999.90;;;;;;;;;;5001775;28;20331;-73
2023/01/13 09:45:03;;;;;;;1999.90;999.90;;;;;;;;;;5013400;28;20358;-72
2023/01/13 09:47:35;;;;;;;1999.90;999.90;;;;;;;;;;5007366;28;20801;-73
2023/01/13 09:50:09;;;;;;;1999.90;999.90;;;;;;;;;;4995722;28;20324;-74
2023/01/13 09:52:38;;;;;;;1999.90;999.90;;;;;;;;;;5005974;28;20241;-73
2023/01/13 09:55:09;;;;;;;1999.90;999.90;;;;;;;;;;5012227;28;20260;-73
2023/01/13 09:57:38;;;;;;;1999.90;999.90;;;;;;;;;;5012290;28;20803;-73
2023/01/13 10:00:11;;;;;;;1999.90;999.90;;;;;;;;;;5007643;28;21814;-74
2023/01/13 10:02:46;;;;;;;1999.90;999.90;;;;;;;;;;5014310;28;20253;-73
2023/01/13 10:05:16;;;;;;;1999.90;999.90;;;;;;;;;;5011904;28;20237;-73
2023/01/13 10:07:47;;;;;;;1999.90;999.90;;;;;;;;;;5004429;28;20234;-75
2023/01/13 10:10:18;;;;;;;1999.90;999.90;;;;;;;;;;5006969;28;20284;-73
2023/01/13 10:15:33;;;;;;;1999.90;999.90;;;;;;;;;;5004908;28;20280;-73
2023/01/13 10:18:08;;;;;;;1999.90;999.90;;;;;;;;;;5001449;28;20237;-74
2023/01/13 10:20:43;;;;;;;1999.90;999.90;;;;;;;;;;5038654;28;20229;-74
2023/01/13 10:23:17;;;;;;;1999.90;999.90;;;;;;;;;;5007122;28;21427;-74
2023/01/13 10:25:50;;;;;;;1999.90;999.90;;;;;;;;;;5008182;28;20327;-74
2023/01/13 10:28:18;;;;;;;1999.90;999.90;;;;;;;;;;5004935;28;20237;-72
2023/01/13 10:30:47;;;;;;;1999.90;999.90;;;;;;;;;;5011717;28;20611;-73
2023/01/13 10:33:17;;;;;;;1999.90;999.90;;;;;;;;;;5004655;28;20230;-72
2023/01/13 10:35:56;;;;;;;1999.90;999.90;;;;;;;;;;5010199;28;20257;-73
2023/01/13 10:38:27;;;;;;;1999.90;999.90;;;;;;;;;;5012401;28;20631;-73
2023/01/13 10:40:56;;;;;;;1999.90;999.90;;;;;;;;;;5011078;28;20240;-72
2023/01/13 10:43:24;;;;;;;1999.90;999.90;;;;;;;;;;5008891;28;20316;-73
2023/01/13 10:45:55;;;;;;;1999.90;999.90;;;;;;;;;;5016110;28;20225;-71
2023/01/13 10:48:31;;;;;;;1999.90;999.90;;;;;;;;;;5010583;28;20253;-73
2023/01/13 10:51:09;;;;;;;1999.90;999.90;;;;;;;;;;5008603;28;20233;-74
2023/01/13 10:53:45;;;;;;;1999.90;999.90;;;;;;;;;;5019208;28;20288;-73
2023/01/13 10:56:16;;;;;;;1999.90;999.90;;;;;;;;;;5011203;28;20244;-73
2023/01/13 10:58:44;;;;;;;1999.90;999.90;;;;;;;;;;5014144;28;20269;-73
2023/01/13 11:01:19;;;;;;;1999.90;999.90;;;;;;;;;;5013150;28;20293;-73
2023/01/13 11:03:50;;;;;;;1999.90;999.90;;;;;;;;;;5019030;28;20283;-73
2023/01/13 11:06:22;;;;;;;1999.90;999.90;;;;;;;;;;4997120;28;20711;-74
2023/01/13 11:08:51;;;;;;;1999.90;999.90;;;;;;;;;;5015690;28;20230;-73
2023/01/13 11:11:27;;;;;;;1999.90;999.90;;;;;;;;;;5014978;28;20234;-74
2023/01/13 11:16:52;;;;;;;1999.90;999.90;;;;;;;;;;4993380;28;20738;-73
2023/01/13 11:19:24;;;;;;;1999.90;999.90;;;;;;;;;;5012556;28;20234;-71
2023/01/13 11:21:54;;;;;;;1999.90;999.90;;;;;;;;;;5006901;28;20244;-71
2023/01/13 11:24:26;;;;;;;1999.90;999.90;;;;;;;;;;5010504;28;20656;-73
2023/01/13 11:26:56;;;;;;;1999.90;999.90;;;;;;;;;;5009062;28;20229;-75
2023/01/13 11:29:27;;;;;;;1999.90;999.90;;;;;;;;;;5006244;28;21803;-75
2023/01/13 11:32:00;;;;;;;1999.90;999.90;;;;;;;;;;5006144;28;21023;-73
2023/01/13 11:34:31;;;;;;;1999.90;999.90;;;;;;;;;;5007662;28;20237;-73
2023/01/13 11:37:01;;;;;;;1999.90;999.90;;;;;;;;;;5019612;28;20242;-73
2023/01/13 11:39:38;;;;;;;1999.90;999.90;;;;;;;;;;5010238;28;20341;-74
2023/01/13 11:42:22;;;;;;;1999.90;999.90;;;;;;;;;;5013067;28;20315;-73
2023/01/13 11:44:54;;;;;;;1999.90;999.90;;;;;;;;;;5008816;28;20240;-74
2023/01/13 11:47:24;;;;;;;1999.90;999.90;;;;;;;;;;5008789;28;20230;-75
2023/01/13 11:49:53;;;;;;;1999.90;999.90;;;;;;;;;;5005008;28;20230;-74
2023/01/13 11:52:24;;;;;;;1999.90;999.90;;;;;;;;;;5013672;28;20256;-75
2023/01/13 11:55:16;;;;;;;1999.90;999.90;;;;;;;;;;5007404;28;20230;-74
2023/01/13 11:57:59;;;;;;;1999.90;999.90;;;;;;;;;;5020547;28;20243;-75
2023/01/13 12:00:32;;;;;;;1999.90;999.90;;;;;;;;;;5009850;28;20233;-73
2023/01/13 12:03:15;;;;;;;1999.90;999.90;;;;;;;;;;5006801;28;20243;-72
2023/01/13 12:05:49;;;;;;;1999.90;999.90;;;;;;;;;;5041402;28;20311;-75
2023/01/13 12:08:18;;;;;;;1999.90;999.90;;;;;;;;;;5006720;28;20233;-75
2023/01/13 12:10:53;;;;;;;1999.90;999.90;;;;;;;;;;5007551;28;20233;-73
2023/01/13 12:13:25;;;;;;;1999.90;999.90;;;;;;;;;;5011130;28;20237;-75
2023/01/13 12:15:57;;;;;;;1999.90;999.90;;;;;;;;;;5007649;28;20238;-74
2023/01/13 12:18:41;;;;;;;1999.90;999.90;;;;;;;;;;5008012;28;20237;-74
2023/01/13 12:21:15;;;;;;;1999.90;999.90;;;;;;;;;;5003317;28;20552;-75
2023/01/13 12:23:46;;;;;;;1999.90;999.90;;;;;;;;;;4989376;28;21309;-73
2023/01/13 12:26:15;;;;;;;1999.90;999.90;;;;;;;;;;5010531;28;21064;-74
2023/01/13 12:28:46;;;;;;;1999.90;999.90;;;;;;;;;;5008167;28;20332;-74
2023/01/13 12:31:17;;;;;;;1999.90;999.90;;;;;;;;;;5007366;28;20229;-73
2023/01/13 12:33:51;;;;;;;1999.90;999.90;;;;;;;;;;4990311;28;20230;-75
2023/01/13 12:36:23;;;;;;;1999.90;999.90;;;;;;;;;;5008699;28;20244;-74
2023/01/13 12:38:57;;;;;;;1999.90;999.90;;;;;;;;;;5017087;28;21091;-74
2023/01/13 12:41:35;;;;;;;1999.90;999.90;;;;;;;;;;5006289;28;20740;-73
2023/01/13 12:44:19;;;;;;;1999.90;999.90;;;;;;;;;;5005067;28;20256;-74
2023/01/13 12:46:52;;;;;;;1999.90;999.90;;;;;;;;;;5005915;28;20652;-75
2023/01/13 12:49:24;;;;;;;1999.90;999.90;;;;;;;;;;5006209;28;20317;-75
2023/01/13 12:52:13;;;;;;;1999.90;999.90;;;;;;;;;;5004345;28;20268;-74
2023/01/13 12:55:14;;;;;;;1999.90;999.90;;;;;;;;;;5003960;28;20283;-75
2023/01/13 12:58:02;;;;;;;1999.90;999.90;;;;;;;;;;4947134;28;20911;-75
2023/01/13 13:00:36;;;;;;;1999.90;999.90;;;;;;;;;;4953389;28;20792;-75
2023/01/13 13:03:31;;;;;;;1999.90;999.90;;;;;;;;;;5000408;28;20243;-74
2023/01/13 13:06:10;;;;;;;1999.90;999.90;;;;;;;;;;4961524;28;20229;-75
2023/01/13 13:08:47;;;;;;;1999.90;999.90;;;;;;;;;;5012108;28;20339;-74
2023/01/13 13:14:12;;;;;;;1999.90;999.90;;;;;;;;;;5008835;28;20229;-74
2023/01/13 13:16:45;;;;;;;1999.90;999.90;;;;;;;;;;5004447;28;20719;-74
2023/01/13 13:19:32;;;;;;;1999.90;999.90;;;;;;;;;;5023712;28;20237;-74
2023/01/13 13:22:17;;;;;;;1999.90;999.90;;;;;;;;;;5010467;28;20728;-75
2023/01/13 13:25:00;;;;;;;1999.90;999.90;;;;;;;;;;5009232;28;20230;-75
2023/01/13 13:27:39;;;;;;;1999.90;999.90;;;;;;;;;;5006887;28;20352;-71
2023/01/13 13:30:11;;;;;;;1999.90;999.90;;;;;;;;;;5027789;28;20232;-72
2023/01/13 13:32:51;;;;;;;1999.90;999.90;;;;;;;;;;5010027;28;20429;-74
2023/01/13 13:35:40;;;;;;;1999.90;999.90;;;;;;;;;;5015416;28;20269;-73
2023/01/13 13:46:56;;;;;;;1999.90;999.90;;;;;;;;;;4947782;28;20239;-74
2023/01/13 13:49:34;;;;;;;1999.90;999.90;;;;;;;;;;4940985;28;20323;-72
2023/01/13 13:52:05;;;;;;;1999.90;999.90;;;;;;;;;;4973416;28;20891;-71
2023/01/13 13:54:33;;;;;;;1999.90;999.90;;;;;;;;;;5004797;28;21542;-73
2023/01/13 13:57:01;;;;;;;1999.90;999.90;;;;;;;;;;5008200;28;20237;-72
2023/01/13 13:59:32;;;;;;;1999.90;999.90;;;;;;;;;;5000584;28;20337;-72
2023/01/13 14:02:02;;;;;;;1999.90;999.90;;;;;;;;;;5005973;28;20240;-72
2023/01/13 14:04:31;;;;;;;1999.90;999.90;;;;;;;;;;5001078;28;20348;-73
2023/01/13 14:07:00;;;;;;;1999.90;999.90;;;;;;;;;;5000514;28;20885;-73
2023/01/13 14:09:28;;;;;;;1999.90;999.90;;;;;;;;;;5015970;28;20238;-72
2023/01/13 14:12:00;;;;;;;1999.90;999.90;;;;;;;;;;5020901;28;20236;-73
2023/01/13 14:14:29;;;;;;;1999.90;999.90;;;;;;;;;;5003306;28;21643;-72
2023/01/13 14:16:57;;;;;;;1999.90;999.90;;;;;;;;;;5001786;28;20292;-72
2023/01/13 14:19:28;;;;;;;1999.90;999.90;;;;;;;;;;4994689;28;20238;-72
2023/01/13 14:21:57;;;;;;;1999.90;999.90;;;;;;;;;;5010741;28;20225;-72
2023/01/13 14:24:25;;;;;;;1999.90;999.90;;;;;;;;;;5005169;28;20245;-73
2023/01/13 14:26:53;;;;;;;1999.90;999.90;;;;;;;;;;5007149;28;20232;-73
2023/01/13 14:29:22;;;;;;;1999.90;999.90;;;;;;;;;;4997213;28;20234;-73
2023/01/13 14:31:51;;;;;;;1999.90;999.90;;;;;;;;;;5015007;28;20234;-73
2023/01/13 14:34:21;;;;;;;1999.90;999.90;;;;;;;;;;4997072;28;20230;-72
2023/01/13 14:37:01;;;;;;;1999.90;999.90;;;;;;;;;;5015294;28;20249;-72
2023/01/13 14:39:37;;;;;;;1999.90;999.90;;;;;;;;;;4997189;28;20252;-71
2023/01/13 14:42:12;;;;;;;1999.90;999.90;;;;;;;;;;5018848;28;20226;-73
2023/01/13 14:44:43;;;;;;;1999.90;999.90;;;;;;;;;;5008840;28;20229;-72
2023/01/13 14:47:19;;;;;;;1999.90;999.90;;;;;;;;;;4996498;28;20284;-72
2023/01/13 14:49:53;;;;;;;1999.90;999.90;;;;;;;;;;4994914;28;20232;-73
2023/01/13 14:52:23;;;;;;;1999.90;999.90;;;;;;;;;;4994309;28;20693;-72
2023/01/13 14:54:52;;;;;;;1999.90;999.90;;;;;;;;;;4992545;28;21168;-72
2023/01/13 14:57:24;;;;;;;1999.90;999.90;;;;;;;;;;5011585;28;20241;-72
2023/01/13 14:59:59;;;;;;;1999.90;999.90;;;;;;;;;;5012319;28;20241;-73
2023/01/13 15:02:37;;;;;;;1999.90;999.90;;;;;;;;;;4990222;28;20226;-73
2023/01/13 15:05:24;;;;;;;1999.90;999.90;;;;;;;;;;4973034;28;20242;-72
2023/01/13 15:07:54;;;;;;;1999.90;999.90;;;;;;;;;;4987990;28;20236;-72
2023/01/13 15:10:22;;;;;;;1999.90;999.90;;;;;;;;;;4985636;28;20230;-72
2023/01/13 15:12:51;;;;;;;1999.90;999.90;;;;;;;;;;5000323;28;20697;-72